createdAt,value
2022-08-29T00:00:31.080Z,18.09
2022-08-29T00:01:31.071Z,18.12
2022-08-29T00:02:31.135Z,18.08
2022-08-29T00:03:31.078Z,18.06
2022-08-29T00:04:31.731Z,18.03
2022-08-29T00:05:31.058Z,18.09
2022-08-29T00:06:31.079Z,18.09
2022-08-29T00:07:31.043Z,17.99
2022-08-29T00:08:31.040Z,17.96
2022-08-29T00:09:31.060Z,18.03
2022-08-29T00:10:31.065Z,17.93
2022-08-29T00:11:31.047Z,17.96
2022-08-29T00:12:31.042Z,17.91
2022-08-29T00:13:31.071Z,17.94
2022-08-29T00:14:31.024Z,17.88
2022-08-29T00:15:31.006Z,17.87
2022-08-29T00:16:31.067Z,17.88
2022-08-29T00:17:31.010Z,17.79
2022-08-29T00:18:30.996Z,17.81
2022-08-29T00:19:30.993Z,17.87
2022-08-29T00:20:34.641Z,17.86
2022-08-29T00:21:30.995Z,17.78
2022-08-29T00:22:31.007Z,17.78
2022-08-29T00:23:30.973Z,17.86
2022-08-29T00:24:30.959Z,17.79
2022-08-29T00:25:30.957Z,17.66
2022-08-29T00:26:31.422Z,17.71
2022-08-29T00:27:30.948Z,17.63
2022-08-29T00:28:30.965Z,17.68
2022-08-29T00:29:30.933Z,17.68
2022-08-29T00:30:30.945Z,17.53
2022-08-29T00:31:31.078Z,17.62
2022-08-29T00:32:30.943Z,17.62
2022-08-29T00:33:30.942Z,17.68
2022-08-29T00:34:30.915Z,17.66
2022-08-29T00:35:30.977Z,17.49
2022-08-29T00:36:30.906Z,17.45
2022-08-29T00:37:30.894Z,17.50
2022-08-29T00:38:30.889Z,17.49
2022-08-29T00:39:32.898Z,17.53
2022-08-29T00:40:30.957Z,17.53
2022-08-29T00:41:30.889Z,17.50
2022-08-29T00:42:30.873Z,17.41
2022-08-29T00:43:30.895Z,17.38
2022-08-29T00:44:30.884Z,17.38
2022-08-29T00:45:30.909Z,17.39
2022-08-29T00:46:30.874Z,17.46
2022-08-29T00:47:30.870Z,17.41
2022-08-29T00:48:30.854Z,17.37
2022-08-29T00:49:30.836Z,17.31
2022-08-29T00:50:30.844Z,17.30
2022-08-29T00:51:30.833Z,17.12
2022-08-29T00:52:30.816Z,17.19
2022-08-29T00:53:30.818Z,17.24
2022-08-29T00:54:30.823Z,17.30
2022-08-29T00:55:30.805Z,17.27
2022-08-29T00:56:30.806Z,17.35
2022-08-29T00:57:30.791Z,17.35
2022-08-29T00:58:30.788Z,17.37
2022-08-29T00:59:30.817Z,17.32
2022-08-29T01:00:30.803Z,17.31
2022-08-29T01:01:30.899Z,17.37
2022-08-29T01:02:30.807Z,17.32
2022-08-29T01:03:30.783Z,17.39
2022-08-29T01:04:30.789Z,17.35
2022-08-29T01:05:30.772Z,17.30
2022-08-29T01:06:30.749Z,17.35
2022-08-29T01:07:30.763Z,17.38
2022-08-29T01:08:30.736Z,17.38
2022-08-29T01:09:30.753Z,17.37
2022-08-29T01:10:30.755Z,17.30
2022-08-29T01:11:30.720Z,17.32
2022-08-29T01:12:30.730Z,17.35
2022-08-29T01:13:30.738Z,17.38
2022-08-29T01:14:30.700Z,17.32
2022-08-29T01:15:30.714Z,17.31
2022-08-29T01:16:30.798Z,17.28
2022-08-29T01:17:30.696Z,17.37
2022-08-29T01:18:30.692Z,17.34
2022-08-29T01:19:30.717Z,17.25
2022-08-29T01:20:30.679Z,17.22
2022-08-29T01:21:30.680Z,17.19
2022-08-29T01:22:30.670Z,17.24
2022-08-29T01:23:30.674Z,17.09
2022-08-29T01:24:30.651Z,17.02
2022-08-29T01:25:30.672Z,17.09
2022-08-29T01:26:30.665Z,17.06
2022-08-29T01:27:30.659Z,16.98
2022-08-29T01:28:30.652Z,17.04
2022-08-29T01:29:30.624Z,16.95
2022-08-29T01:30:30.640Z,16.87
2022-08-29T01:31:38.631Z,16.88
2022-08-29T01:32:30.651Z,16.91
2022-08-29T01:33:30.605Z,16.91
2022-08-29T01:34:30.625Z,16.91
2022-08-29T01:35:30.626Z,16.92
2022-08-29T01:36:30.589Z,16.82
2022-08-29T01:37:30.579Z,16.88
2022-08-29T01:38:30.580Z,16.95
2022-08-29T01:39:30.602Z,16.90
2022-08-29T01:40:30.637Z,16.88
2022-08-29T01:41:30.558Z,16.87
2022-08-29T01:42:32.321Z,16.87
2022-08-29T01:43:30.548Z,16.83
2022-08-29T01:44:30.549Z,16.76
2022-08-29T01:45:30.604Z,16.79
2022-08-29T01:46:30.538Z,16.70
2022-08-29T01:47:30.565Z,16.70
2022-08-29T01:48:30.547Z,16.82
2022-08-29T01:49:30.519Z,16.70
2022-08-29T01:50:30.540Z,16.76
2022-08-29T01:51:30.527Z,16.79
2022-08-29T01:52:30.528Z,16.70
2022-08-29T01:53:30.505Z,16.70
2022-08-29T01:54:30.486Z,16.74
2022-08-29T01:55:30.491Z,16.76
2022-08-29T01:56:30.491Z,16.67
2022-08-29T01:57:30.483Z,16.70
2022-08-29T01:58:30.481Z,16.59
2022-08-29T01:59:30.474Z,16.64
2022-08-29T02:00:30.457Z,16.65
2022-08-29T02:01:30.513Z,16.69
2022-08-29T02:02:30.591Z,16.64
2022-08-29T02:03:30.440Z,16.69
2022-08-29T02:04:30.462Z,16.55
2022-08-29T02:05:30.437Z,16.58
2022-08-29T02:06:30.459Z,16.54
2022-08-29T02:07:30.416Z,16.64
2022-08-29T02:08:30.449Z,16.58
2022-08-29T02:09:30.405Z,16.57
2022-08-29T02:10:30.425Z,16.54
2022-08-29T02:11:30.397Z,16.55
2022-08-29T02:12:30.397Z,16.57
2022-08-29T02:13:30.425Z,16.54
2022-08-29T02:14:30.404Z,16.55
2022-08-29T02:15:30.384Z,16.57
2022-08-29T02:16:30.410Z,16.44
2022-08-29T02:17:30.375Z,16.57
2022-08-29T02:18:30.375Z,16.55
2022-08-29T02:19:30.360Z,16.43
2022-08-29T02:20:30.370Z,16.44
2022-08-29T02:21:30.370Z,16.37
2022-08-29T02:22:30.333Z,16.42
2022-08-29T02:23:31.338Z,16.42
2022-08-29T02:24:30.327Z,16.37
2022-08-29T02:25:30.316Z,16.34
2022-08-29T02:26:30.315Z,16.34
2022-08-29T02:27:30.349Z,16.29
2022-08-29T02:28:30.294Z,16.47
2022-08-29T02:29:31.958Z,16.36
2022-08-29T02:30:30.287Z,16.29
2022-08-29T02:31:30.391Z,16.28
2022-08-29T02:32:30.281Z,16.42
2022-08-29T02:33:30.269Z,16.34
2022-08-29T02:34:30.270Z,16.33
2022-08-29T02:35:33.471Z,16.28
2022-08-29T02:36:30.281Z,16.22
2022-08-29T02:37:30.242Z,16.24
2022-08-29T02:38:30.237Z,16.14
2022-08-29T02:39:30.269Z,16.22
2022-08-29T02:40:31.627Z,16.10
2022-08-29T02:41:30.230Z,16.14
2022-08-29T02:42:30.261Z,16.16
2022-08-29T02:43:30.253Z,16.10
2022-08-29T02:44:30.216Z,16.16
2022-08-29T02:45:30.201Z,16.13
2022-08-29T02:46:30.257Z,16.26
2022-08-29T02:47:30.213Z,16.36
2022-08-29T02:48:30.228Z,16.39
2022-08-29T02:49:30.374Z,16.32
2022-08-29T02:50:30.175Z,16.33
2022-08-29T02:51:30.165Z,16.32
2022-08-29T02:52:30.731Z,16.28
2022-08-29T02:53:30.170Z,16.24
2022-08-29T02:54:30.156Z,16.14
2022-08-29T02:55:30.176Z,16.21
2022-08-29T02:56:30.154Z,16.21
2022-08-29T02:57:30.143Z,16.09
2022-08-29T02:58:30.125Z,16.18
2022-08-29T02:59:30.131Z,16.10
2022-08-29T03:00:30.147Z,16.08
2022-08-29T03:01:30.121Z,16.00
2022-08-29T03:02:30.119Z,16.10
2022-08-29T03:03:30.138Z,16.09
2022-08-29T03:04:30.091Z,16.10
2022-08-29T03:05:30.113Z,16.08
2022-08-29T03:06:30.081Z,16.10
2022-08-29T03:07:30.077Z,16.16
2022-08-29T03:08:30.085Z,16.08
2022-08-29T03:09:30.062Z,16.10
2022-08-29T03:10:30.082Z,16.08
2022-08-29T03:11:30.056Z,16.10
2022-08-29T03:12:30.055Z,16.00
2022-08-29T03:13:30.046Z,16.05
2022-08-29T03:14:30.031Z,16.00
2022-08-29T03:15:30.037Z,16.03
2022-08-29T03:16:30.100Z,16.13
2022-08-29T03:17:30.022Z,16.03
2022-08-29T03:18:30.012Z,16.06
2022-08-29T03:19:30.009Z,16.06
2022-08-29T03:20:30.037Z,16.00
2022-08-29T03:21:30.000Z,16.06
2022-08-29T03:22:30.005Z,16.03
2022-08-29T03:23:30.013Z,15.96
2022-08-29T03:24:29.992Z,16.02
2022-08-29T03:25:30.006Z,15.87
2022-08-29T03:26:29.982Z,15.87
2022-08-29T03:27:29.958Z,15.73
2022-08-29T03:28:29.958Z,15.77
2022-08-29T03:29:29.981Z,15.78
2022-08-29T03:30:29.962Z,15.88
2022-08-29T03:31:30.076Z,15.78
2022-08-29T03:32:29.960Z,15.85
2022-08-29T03:33:29.930Z,15.91
2022-08-29T03:34:29.938Z,15.87
2022-08-29T03:35:29.937Z,15.83
2022-08-29T03:36:29.901Z,15.87
2022-08-29T03:37:29.925Z,15.77
2022-08-29T03:38:29.904Z,15.73
2022-08-29T03:39:29.905Z,15.72
2022-08-29T03:40:29.915Z,15.77
2022-08-29T03:41:29.889Z,15.70
2022-08-29T03:42:29.890Z,15.78
2022-08-29T03:43:29.867Z,15.73
2022-08-29T03:44:29.893Z,15.85
2022-08-29T03:45:29.870Z,15.90
2022-08-29T03:46:29.886Z,15.96
2022-08-29T03:47:29.865Z,15.90
2022-08-29T03:48:29.863Z,15.98
2022-08-29T03:49:29.837Z,16.05
2022-08-29T03:50:29.876Z,15.96
2022-08-29T03:51:29.838Z,16.00
2022-08-29T03:52:29.827Z,15.98
2022-08-29T03:53:30.821Z,15.96
2022-08-29T03:54:29.819Z,15.87
2022-08-29T03:55:29.831Z,15.95
2022-08-29T03:56:29.791Z,15.87
2022-08-29T03:57:30.379Z,15.90
2022-08-29T03:58:29.805Z,15.84
2022-08-29T03:59:29.781Z,15.84
2022-08-29T04:00:29.771Z,15.70
2022-08-29T04:01:29.858Z,15.76
2022-08-29T04:02:29.846Z,15.41
2022-08-29T04:03:31.498Z,15.44
2022-08-29T04:04:29.736Z,15.30
2022-08-29T04:05:29.752Z,15.30
2022-08-29T04:06:29.733Z,15.23
2022-08-29T04:07:29.728Z,15.22
2022-08-29T04:08:29.742Z,15.22
2022-08-29T04:09:29.725Z,15.08
2022-08-29T04:10:29.704Z,15.12
2022-08-29T04:11:29.703Z,15.04
2022-08-29T04:12:29.714Z,14.97
2022-08-29T04:13:29.686Z,14.93
2022-08-29T04:14:29.687Z,15.15
2022-08-29T04:15:29.693Z,15.23
2022-08-29T04:16:30.794Z,15.23
2022-08-29T04:17:29.678Z,15.25
2022-08-29T04:18:29.666Z,15.32
2022-08-29T04:19:29.651Z,15.35
2022-08-29T04:20:29.695Z,15.45
2022-08-29T04:21:29.687Z,15.52
2022-08-29T04:22:29.646Z,15.51
2022-08-29T04:23:29.635Z,15.50
2022-08-29T04:24:29.633Z,15.45
2022-08-29T04:25:32.918Z,15.52
2022-08-29T04:26:36.844Z,15.62
2022-08-29T04:27:29.611Z,15.66
2022-08-29T04:28:29.623Z,15.63
2022-08-29T04:29:29.595Z,15.51
2022-08-29T04:30:29.618Z,15.63
2022-08-29T04:31:29.640Z,15.58
2022-08-29T04:32:29.585Z,15.68
2022-08-29T04:33:29.577Z,15.50
2022-08-29T04:34:29.564Z,15.47
2022-08-29T04:35:29.592Z,15.44
2022-08-29T04:36:29.571Z,15.41
2022-08-29T04:37:29.546Z,15.44
2022-08-29T04:38:29.556Z,15.40
2022-08-29T04:39:29.531Z,15.44
2022-08-29T04:40:29.560Z,15.48
2022-08-29T04:41:29.560Z,15.50
2022-08-29T04:42:29.525Z,15.50
2022-08-29T04:43:29.539Z,15.66
2022-08-29T04:44:29.531Z,15.63
2022-08-29T04:45:29.538Z,15.69
2022-08-29T04:46:29.579Z,15.72
2022-08-29T04:47:29.508Z,15.70
2022-08-29T04:48:29.482Z,15.70
2022-08-29T04:49:29.483Z,15.73
2022-08-29T04:50:29.487Z,15.72
2022-08-29T04:51:29.477Z,15.72
2022-08-29T04:52:29.492Z,15.66
2022-08-29T04:53:29.484Z,15.73
2022-08-29T04:54:29.793Z,15.73
2022-08-29T04:55:29.493Z,15.83
2022-08-29T04:56:29.796Z,15.90
2022-08-29T04:57:29.437Z,15.85
2022-08-29T04:58:29.417Z,15.83
2022-08-29T04:59:29.419Z,15.83
2022-08-29T05:00:29.438Z,15.77
2022-08-29T05:01:29.466Z,15.81
2022-08-29T05:02:29.440Z,15.91
2022-08-29T05:03:29.412Z,15.93
2022-08-29T05:04:29.409Z,15.91
2022-08-29T05:05:29.386Z,15.88
2022-08-29T05:06:29.403Z,15.84
2022-08-29T05:07:29.387Z,15.87
2022-08-29T05:08:29.397Z,15.84
2022-08-29T05:09:29.383Z,15.84
2022-08-29T05:10:29.350Z,15.87
2022-08-29T05:11:29.375Z,15.85
2022-08-29T05:12:29.355Z,15.90
2022-08-29T05:13:29.348Z,15.93
2022-08-29T05:14:29.332Z,15.91
2022-08-29T05:15:29.369Z,15.87
2022-08-29T05:16:29.362Z,15.87
2022-08-29T05:17:29.332Z,15.90
2022-08-29T05:18:29.328Z,15.70
2022-08-29T05:19:29.297Z,15.78
2022-08-29T05:20:29.335Z,15.72
2022-08-29T05:21:29.297Z,15.73
2022-08-29T05:22:29.300Z,15.72
2022-08-29T05:23:29.298Z,15.69
2022-08-29T05:24:29.271Z,15.70
2022-08-29T05:25:29.275Z,15.72
2022-08-29T05:26:29.274Z,15.68
2022-08-29T05:27:29.250Z,15.70
2022-08-29T05:28:29.265Z,15.80
2022-08-29T05:29:29.264Z,15.70
2022-08-29T05:30:29.265Z,15.70
2022-08-29T05:31:29.291Z,15.76
2022-08-29T05:32:29.250Z,15.73
2022-08-29T05:33:29.235Z,15.77
2022-08-29T05:34:33.930Z,15.81
2022-08-29T05:35:29.208Z,15.70
2022-08-29T05:36:29.207Z,15.70
2022-08-29T05:37:29.208Z,15.73
2022-08-29T05:38:29.187Z,15.77
2022-08-29T05:39:29.198Z,15.70
2022-08-29T05:40:29.222Z,15.78
2022-08-29T05:41:29.187Z,15.83
2022-08-29T05:42:29.191Z,15.84
2022-08-29T05:43:29.154Z,15.87
2022-08-29T05:44:34.208Z,15.95
2022-08-29T05:45:29.157Z,15.81
2022-08-29T05:46:29.193Z,15.96
2022-08-29T05:47:29.178Z,15.91
2022-08-29T05:48:29.131Z,15.91
2022-08-29T05:49:29.141Z,16.06
2022-08-29T05:50:29.140Z,16.02
2022-08-29T05:51:29.126Z,16.05
2022-08-29T05:52:29.126Z,16.08
2022-08-29T05:53:29.136Z,16.16
2022-08-29T05:54:30.096Z,16.13
2022-08-29T05:55:29.108Z,16.14
2022-08-29T05:56:29.079Z,16.13
2022-08-29T05:57:29.105Z,16.22
2022-08-29T05:58:29.091Z,16.32
2022-08-29T05:59:29.082Z,16.33
2022-08-29T06:00:29.059Z,16.33
2022-08-29T06:01:29.085Z,16.33
2022-08-29T06:02:29.194Z,16.39
2022-08-29T06:03:29.233Z,16.33
2022-08-29T06:04:29.064Z,16.26
2022-08-29T06:05:29.040Z,16.44
2022-08-29T06:06:29.034Z,16.33
2022-08-29T06:07:29.035Z,16.37
2022-08-29T06:08:29.035Z,16.42
2022-08-29T06:09:29.030Z,16.36
2022-08-29T06:10:28.996Z,16.47
2022-08-29T06:11:29.024Z,16.46
2022-08-29T06:12:29.015Z,16.57
2022-08-29T06:13:29.016Z,16.54
2022-08-29T06:14:29.000Z,16.43
2022-08-29T06:15:29.080Z,16.40
2022-08-29T06:16:28.968Z,16.51
2022-08-29T06:17:29.018Z,16.58
2022-08-29T06:18:35.472Z,16.42
2022-08-29T06:19:28.956Z,16.57
2022-08-29T06:20:28.969Z,16.57
2022-08-29T06:21:28.932Z,16.67
2022-08-29T06:22:28.956Z,16.69
2022-08-29T06:23:28.928Z,16.76
2022-08-29T06:24:28.930Z,16.65
2022-08-29T06:25:39.647Z,16.64
2022-08-29T06:26:28.932Z,16.72
2022-08-29T06:27:28.921Z,16.69
2022-08-29T06:28:28.924Z,16.61
2022-08-29T06:29:28.920Z,16.64
2022-08-29T06:30:28.923Z,16.69
2022-08-29T06:31:28.934Z,16.73
2022-08-29T06:32:28.888Z,16.74
2022-08-29T06:33:28.883Z,16.76
2022-08-29T06:34:28.891Z,17.04
2022-08-29T06:35:28.874Z,17.04
2022-08-29T06:36:28.856Z,17.07
2022-08-29T06:37:28.844Z,17.07
2022-08-29T06:38:28.873Z,17.22
2022-08-29T06:39:28.909Z,17.19
2022-08-29T06:40:28.883Z,17.16
2022-08-29T06:41:28.855Z,17.22
2022-08-29T06:42:28.881Z,17.17
2022-08-29T06:43:28.837Z,17.14
2022-08-29T06:44:30.519Z,17.27
2022-08-29T06:45:28.811Z,17.25
2022-08-29T06:46:28.920Z,17.35
2022-08-29T06:47:28.811Z,17.32
2022-08-29T06:48:29.717Z,17.31
2022-08-29T06:49:28.817Z,17.35
2022-08-29T06:50:28.811Z,17.39
2022-08-29T06:51:28.813Z,17.45
2022-08-29T06:52:28.797Z,17.45
2022-08-29T06:53:32.215Z,17.53
2022-08-29T06:54:28.899Z,17.52
2022-08-29T06:55:28.790Z,17.54
2022-08-29T06:56:28.781Z,17.65
2022-08-29T06:57:28.788Z,17.63
2022-08-29T06:58:28.767Z,17.71
2022-08-29T06:59:28.766Z,17.81
2022-08-29T07:00:28.743Z,17.83
2022-08-29T07:01:28.771Z,17.86
2022-08-29T07:02:28.780Z,17.94
2022-08-29T07:03:28.726Z,18.03
2022-08-29T07:04:28.717Z,17.99
2022-08-29T07:05:28.742Z,17.94
2022-08-29T07:06:28.714Z,17.99
2022-08-29T07:07:28.753Z,17.99
2022-08-29T07:08:28.716Z,18.01
2022-08-29T07:09:28.707Z,18.08
2022-08-29T07:10:28.726Z,18.11
2022-08-29T07:11:28.701Z,18.21
2022-08-29T07:12:28.713Z,18.46
2022-08-29T07:13:28.749Z,18.57
2022-08-29T07:14:28.698Z,18.64
2022-08-29T07:15:28.712Z,18.56
2022-08-29T07:16:28.661Z,18.70
2022-08-29T07:17:28.711Z,18.81
2022-08-29T07:18:28.648Z,18.88
2022-08-29T07:19:28.663Z,18.88
2022-08-29T07:20:28.658Z,18.86
2022-08-29T07:21:28.668Z,18.85
2022-08-29T07:22:28.651Z,18.79
2022-08-29T07:23:28.640Z,19.01
2022-08-29T07:24:28.632Z,19.13
2022-08-29T07:25:28.631Z,19.34
2022-08-29T07:26:28.676Z,19.34
2022-08-29T07:27:28.621Z,19.57
2022-08-29T07:28:28.644Z,19.75
2022-08-29T07:29:28.601Z,19.89
2022-08-29T07:30:28.679Z,20.09
2022-08-29T07:31:30.978Z,20.14
2022-08-29T07:32:28.604Z,20.23
2022-08-29T07:33:28.627Z,20.27
2022-08-29T07:34:28.582Z,20.26
2022-08-29T07:35:30.830Z,20.23
2022-08-29T07:36:28.625Z,20.22
2022-08-29T07:37:28.639Z,20.15
2022-08-29T07:38:28.579Z,20.07
2022-08-29T07:39:28.584Z,20.22
2022-08-29T07:40:28.645Z,20.22
2022-08-29T07:41:28.575Z,20.19
2022-08-29T07:42:28.568Z,20.26
2022-08-29T07:43:28.708Z,20.22
2022-08-29T07:44:32.174Z,20.18
2022-08-29T07:45:28.603Z,20.23
2022-08-29T07:46:28.606Z,20.23
2022-08-29T07:47:28.560Z,20.29
2022-08-29T07:48:28.607Z,20.37
2022-08-29T07:49:40.167Z,20.49
2022-08-29T07:50:28.549Z,20.46
2022-08-29T07:51:28.566Z,20.41
2022-08-29T07:52:28.546Z,20.46
2022-08-29T07:53:28.548Z,20.46
2022-08-29T07:54:28.594Z,20.26
2022-08-29T07:55:28.591Z,20.56
2022-08-29T07:56:28.574Z,20.61
2022-08-29T07:57:28.537Z,20.65
2022-08-29T07:58:28.571Z,20.93
2022-08-29T07:59:28.576Z,20.88
2022-08-29T08:00:28.565Z,20.90
2022-08-29T08:01:28.614Z,20.97
2022-08-29T08:02:28.599Z,21.03
2022-08-29T08:03:28.575Z,21.03
2022-08-29T08:04:28.542Z,20.86
2022-08-29T08:05:28.565Z,20.88
2022-08-29T08:06:28.534Z,20.75
2022-08-29T08:07:29.621Z,20.56
2022-08-29T08:08:28.555Z,20.60
2022-08-29T08:09:28.532Z,20.82
2022-08-29T08:10:28.583Z,20.90
2022-08-29T08:11:28.562Z,20.97
2022-08-29T08:12:28.530Z,21.22
2022-08-29T08:13:28.594Z,21.23
2022-08-29T08:14:34.725Z,21.25
2022-08-29T08:15:28.559Z,21.29
2022-08-29T08:16:28.562Z,21.40
2022-08-29T08:17:28.559Z,21.45
2022-08-29T08:18:28.536Z,21.51
2022-08-29T08:19:28.532Z,21.66
2022-08-29T08:20:28.560Z,21.66
2022-08-29T08:21:28.572Z,21.66
2022-08-29T08:22:28.576Z,21.78
2022-08-29T08:23:28.546Z,21.80
2022-08-29T08:24:28.546Z,21.94
2022-08-29T08:25:28.583Z,22.06
2022-08-29T08:26:28.568Z,22.19
2022-08-29T08:27:28.553Z,22.19
2022-08-29T08:28:28.556Z,22.27
2022-08-29T08:29:28.549Z,22.12
2022-08-29T08:30:30.804Z,22.09
2022-08-29T08:31:28.607Z,22.03
2022-08-29T08:32:32.362Z,22.16
2022-08-29T08:33:28.542Z,22.18
2022-08-29T08:34:28.571Z,22.18
2022-08-29T08:35:28.575Z,22.21
2022-08-29T08:36:28.698Z,22.30
2022-08-29T08:37:28.566Z,22.34
2022-08-29T08:38:28.568Z,22.31
2022-08-29T08:39:28.557Z,22.37
2022-08-29T08:40:28.619Z,22.56
2022-08-29T08:41:28.603Z,22.73
2022-08-29T08:42:28.561Z,23.07
2022-08-29T08:43:28.575Z,23.34
2022-08-29T08:44:28.611Z,23.34
2022-08-29T08:45:28.588Z,23.21
2022-08-29T08:46:28.751Z,23.10
2022-08-29T08:47:28.602Z,23.11
2022-08-29T08:48:28.627Z,23.23
2022-08-29T08:49:28.576Z,23.15
2022-08-29T08:50:28.596Z,23.17
2022-08-29T08:51:28.618Z,23.28
2022-08-29T08:52:28.613Z,23.51
2022-08-29T08:53:28.595Z,23.63
2022-08-29T08:54:28.615Z,23.60
2022-08-29T08:55:28.616Z,23.60
2022-08-29T08:56:28.685Z,23.67
2022-08-29T08:57:28.622Z,23.78
2022-08-29T08:58:29.290Z,23.73
2022-08-29T08:59:28.635Z,23.88
2022-08-29T09:00:28.624Z,23.92
2022-08-29T09:01:28.720Z,24.10
2022-08-29T09:02:28.735Z,24.04
2022-08-29T09:03:28.638Z,24.10
2022-08-29T09:04:28.627Z,24.15
2022-08-29T09:05:28.628Z,24.43
2022-08-29T09:06:28.664Z,24.41
2022-08-29T09:07:28.643Z,24.47
2022-08-29T09:08:28.636Z,24.55
2022-08-29T09:09:28.694Z,24.55
2022-08-29T09:10:28.653Z,24.70
2022-08-29T09:11:28.665Z,24.90
2022-08-29T09:12:28.655Z,24.96
2022-08-29T09:13:28.671Z,25.04
2022-08-29T09:14:28.683Z,25.14
2022-08-29T09:15:32.599Z,25.33
2022-08-29T09:16:28.689Z,25.31
2022-08-29T09:17:28.674Z,25.48
2022-08-29T09:18:28.678Z,25.55
2022-08-29T09:19:28.715Z,25.55
2022-08-29T09:20:28.687Z,25.43
2022-08-29T09:21:42.986Z,25.41
2022-08-29T09:22:32.840Z,25.38
2022-08-29T09:23:28.714Z,25.33
2022-08-29T09:24:28.708Z,25.37
2022-08-29T09:25:28.705Z,25.41
2022-08-29T09:26:28.719Z,25.45
2022-08-29T09:27:28.730Z,25.56
2022-08-29T09:28:30.755Z,25.51
2022-08-29T09:29:28.730Z,25.38
2022-08-29T09:30:28.737Z,25.38
2022-08-29T09:31:28.821Z,25.38
2022-08-29T09:32:28.751Z,25.27
2022-08-29T09:33:28.753Z,25.23
2022-08-29T09:34:29.227Z,25.36
2022-08-29T09:35:28.772Z,25.34
2022-08-29T09:36:28.771Z,25.49
2022-08-29T09:37:28.773Z,25.74
2022-08-29T09:38:28.782Z,25.75
2022-08-29T09:39:28.786Z,25.74
2022-08-29T09:40:28.836Z,25.52
2022-08-29T09:41:30.550Z,25.53
2022-08-29T09:42:28.799Z,25.73
2022-08-29T09:43:28.825Z,26.00
2022-08-29T09:44:28.844Z,26.04
2022-08-29T09:45:28.964Z,25.86
2022-08-29T09:46:28.947Z,25.93
2022-08-29T09:47:28.834Z,25.83
2022-08-29T09:48:33.339Z,25.77
2022-08-29T09:49:28.859Z,25.67
2022-08-29T09:50:28.851Z,25.64
2022-08-29T09:51:28.853Z,25.85
2022-08-29T09:52:28.880Z,26.16
2022-08-29T09:53:29.209Z,26.33
2022-08-29T09:54:28.906Z,26.38
2022-08-29T09:55:28.878Z,26.36
2022-08-29T09:56:28.897Z,26.36
2022-08-29T09:57:28.907Z,26.67
2022-08-29T09:58:28.912Z,26.78
2022-08-29T09:59:28.933Z,26.64
2022-08-29T10:00:28.914Z,26.63
2022-08-29T10:01:29.031Z,26.57
2022-08-29T10:02:28.991Z,26.67
2022-08-29T10:03:28.950Z,26.78
2022-08-29T10:04:28.947Z,27.12
2022-08-29T10:05:28.963Z,27.22
2022-08-29T10:06:28.967Z,27.44
2022-08-29T10:07:28.954Z,27.35
2022-08-29T10:08:28.976Z,27.19
2022-08-29T10:09:28.989Z,27.37
2022-08-29T10:10:28.987Z,27.42
2022-08-29T10:11:29.013Z,27.44
2022-08-29T10:12:29.011Z,27.53
2022-08-29T10:13:30.099Z,27.75
2022-08-29T10:14:29.039Z,27.78
2022-08-29T10:15:49.510Z,27.91
2022-08-29T10:16:29.069Z,27.91
2022-08-29T10:17:29.031Z,28.09
2022-08-29T10:18:29.041Z,27.98
2022-08-29T10:19:34.327Z,28.09
2022-08-29T10:20:29.057Z,27.75
2022-08-29T10:21:29.063Z,27.52
2022-08-29T10:22:29.067Z,27.19
2022-08-29T10:23:29.073Z,27.35
2022-08-29T10:24:29.077Z,27.45
2022-08-29T10:25:29.075Z,27.58
2022-08-29T10:26:29.148Z,27.58
2022-08-29T10:27:29.111Z,27.60
2022-08-29T10:28:29.126Z,27.58
2022-08-29T10:29:31.726Z,27.73
2022-08-29T10:30:29.135Z,27.68
2022-08-29T10:31:29.172Z,27.73
2022-08-29T10:32:29.147Z,27.85
2022-08-29T10:33:29.135Z,27.90
2022-08-29T10:34:29.153Z,28.06
2022-08-29T10:35:29.166Z,28.10
2022-08-29T10:36:29.153Z,28.32
2022-08-29T10:37:29.187Z,28.50
2022-08-29T10:38:29.179Z,28.57
2022-08-29T10:39:29.215Z,28.66
2022-08-29T10:40:29.236Z,28.86
2022-08-29T10:41:29.195Z,28.86
2022-08-29T10:42:29.199Z,28.94
2022-08-29T10:43:29.217Z,28.96
2022-08-29T10:44:29.215Z,28.57
2022-08-29T10:45:29.293Z,28.32
2022-08-29T10:46:29.227Z,28.28
2022-08-29T10:47:29.276Z,28.20
2022-08-29T10:48:29.267Z,28.35
2022-08-29T10:49:29.252Z,28.49
2022-08-29T10:50:45.313Z,28.56
2022-08-29T10:51:29.291Z,28.47
2022-08-29T10:52:29.279Z,28.46
2022-08-29T10:53:29.289Z,27.82
2022-08-29T10:54:29.301Z,27.12
2022-08-29T10:55:29.309Z,27.22
2022-08-29T10:56:29.327Z,27.31
2022-08-29T10:57:29.311Z,27.54
2022-08-29T10:58:29.313Z,27.70
2022-08-29T10:59:29.327Z,27.93
2022-08-29T11:00:29.369Z,28.09
2022-08-29T11:01:29.540Z,28.37
2022-08-29T11:02:29.351Z,28.54
2022-08-29T11:03:29.386Z,28.53
2022-08-29T11:04:29.406Z,28.10
2022-08-29T11:05:29.380Z,27.79
2022-08-29T11:06:29.428Z,27.87
2022-08-29T11:07:29.421Z,28.10
2022-08-29T11:08:29.397Z,28.32
2022-08-29T11:09:29.402Z,28.30
2022-08-29T11:10:29.405Z,28.53
2022-08-29T11:11:29.406Z,28.65
2022-08-29T11:12:29.418Z,28.56
2022-08-29T11:13:29.458Z,28.69
2022-08-29T11:14:29.453Z,28.90
2022-08-29T11:15:29.461Z,29.02
2022-08-29T11:16:29.517Z,29.12
2022-08-29T11:17:29.455Z,29.12
2022-08-29T11:18:29.470Z,28.96
2022-08-29T11:19:29.465Z,28.90
2022-08-29T11:20:29.507Z,29.09
2022-08-29T11:21:29.509Z,29.18
2022-08-29T11:22:29.490Z,29.09
2022-08-29T11:23:30.368Z,29.03
2022-08-29T11:24:34.186Z,28.91
2022-08-29T11:25:29.512Z,28.75
2022-08-29T11:26:29.519Z,28.69
2022-08-29T11:27:29.545Z,28.59
2022-08-29T11:28:29.550Z,28.43
2022-08-29T11:29:29.578Z,28.28
2022-08-29T11:30:29.555Z,28.25
2022-08-29T11:31:29.594Z,28.09
2022-08-29T11:32:29.584Z,28.01
2022-08-29T11:33:29.576Z,28.07
2022-08-29T11:34:29.615Z,27.93
2022-08-29T11:35:29.605Z,27.85
2022-08-29T11:36:29.609Z,27.87
2022-08-29T11:37:29.601Z,27.90
2022-08-29T11:38:29.608Z,27.88
2022-08-29T11:39:29.626Z,27.80
2022-08-29T11:41:30.252Z,27.75
2022-08-29T11:43:29.664Z,27.57
2022-08-29T11:44:29.675Z,27.54
2022-08-29T11:45:35.744Z,27.37
2022-08-29T11:46:29.737Z,27.27
2022-08-29T11:47:29.675Z,27.30
2022-08-29T11:48:29.678Z,27.22
2022-08-29T11:49:29.689Z,27.35
2022-08-29T11:50:29.676Z,27.42
2022-08-29T11:51:29.685Z,27.49
2022-08-29T11:52:29.709Z,27.47
2022-08-29T11:53:29.741Z,27.50
2022-08-29T11:54:29.733Z,27.31
2022-08-29T11:55:29.741Z,27.25
2022-08-29T11:56:29.712Z,27.16
2022-08-29T11:57:29.715Z,27.13
2022-08-29T11:58:29.729Z,27.12
2022-08-29T11:59:29.757Z,27.08
2022-08-29T12:00:29.732Z,26.89
2022-08-29T12:01:29.748Z,26.82
2022-08-29T12:02:29.730Z,26.89
2022-08-29T12:03:30.308Z,26.90
2022-08-29T12:04:29.859Z,26.73
2022-08-29T12:05:29.741Z,26.63
2022-08-29T12:06:29.752Z,26.76
2022-08-29T12:07:29.756Z,26.79
2022-08-29T12:08:36.889Z,26.88
2022-08-29T12:09:29.756Z,26.70
2022-08-29T12:10:29.762Z,26.42
2022-08-29T12:11:29.768Z,26.33
2022-08-29T12:12:29.789Z,26.34
2022-08-29T12:13:29.788Z,26.26
2022-08-29T12:14:32.223Z,26.36
2022-08-29T12:15:29.780Z,26.24
2022-08-29T12:16:29.819Z,26.38
2022-08-29T12:17:51.266Z,26.34
2022-08-29T12:18:33.386Z,26.41
2022-08-29T12:19:29.795Z,26.41
2022-08-29T12:20:29.812Z,26.56
2022-08-29T12:21:29.806Z,26.71
2022-08-29T12:22:29.863Z,26.78
2022-08-29T12:23:29.798Z,26.76
2022-08-29T12:24:29.800Z,26.83
2022-08-29T12:25:29.821Z,26.88
2022-08-29T12:26:29.813Z,26.80
2022-08-29T12:27:29.814Z,26.76
2022-08-29T12:28:29.811Z,26.82
2022-08-29T12:29:29.814Z,26.88
2022-08-29T12:30:29.847Z,27.05
2022-08-29T12:31:29.886Z,27.07
2022-08-29T12:32:32.158Z,27.15
2022-08-29T12:33:29.822Z,27.07
2022-08-29T12:34:29.838Z,27.16
2022-08-29T12:35:29.841Z,27.17
2022-08-29T12:36:29.846Z,27.15
2022-08-29T12:37:29.830Z,27.13
2022-08-29T12:38:29.839Z,27.13
2022-08-29T12:39:29.829Z,27.00
2022-08-29T12:40:29.897Z,27.12
2022-08-29T12:41:29.848Z,27.19
2022-08-29T12:42:29.853Z,27.15
2022-08-29T12:43:29.847Z,27.19
2022-08-29T12:44:29.879Z,27.23
2022-08-29T12:45:29.869Z,27.35
2022-08-29T12:46:29.908Z,27.27
2022-08-29T12:47:29.853Z,27.12
2022-08-29T12:48:29.859Z,27.16
2022-08-29T12:49:29.973Z,27.16
2022-08-29T12:50:29.886Z,27.16
2022-08-29T12:51:29.860Z,27.27
2022-08-29T12:52:29.892Z,27.30
2022-08-29T12:53:29.871Z,27.38
2022-08-29T12:54:29.868Z,27.50